createdAt,value
2023-10-25T00:01:59.758Z,11.70
2023-10-25T00:04:30.333Z,11.65
2023-10-25T00:07:00.904Z,11.62
2023-10-25T00:09:31.545Z,11.71
2023-10-25T00:12:02.458Z,11.77
2023-10-25T00:14:33.057Z,11.66
2023-10-25T00:17:03.627Z,11.70
2023-10-25T00:19:34.674Z,11.69
2023-10-25T00:22:05.774Z,11.62
2023-10-25T00:24:36.277Z,11.73
2023-10-25T00:27:08.693Z,11.73
2023-10-25T00:29:39.887Z,11.74
2023-10-25T00:32:17.436Z,11.68
2023-10-25T00:34:44.998Z,11.66
2023-10-25T00:37:15.527Z,11.68
2023-10-25T00:39:46.177Z,11.73
2023-10-25T00:42:16.701Z,11.73
2023-10-25T00:44:49.788Z,11.73
2023-10-25T00:47:20.776Z,11.68
2023-10-25T00:49:51.371Z,11.73
2023-10-25T00:52:22.035Z,11.70
2023-10-25T00:54:54.203Z,11.70
2023-10-25T00:57:25.077Z,11.68
2023-10-25T00:59:55.870Z,11.76
2023-10-25T01:02:38.655Z,11.66
2023-10-25T01:05:09.738Z,11.64
2023-10-25T01:07:40.368Z,11.58
2023-10-25T01:10:14.966Z,11.52
2023-10-25T01:12:45.666Z,11.54
2023-10-25T01:15:17.176Z,11.50
2023-10-25T01:17:49.251Z,11.62
2023-10-25T01:20:20.449Z,11.60
2023-10-25T01:22:51.590Z,11.54
2023-10-25T01:25:23.434Z,11.48
2023-10-25T01:27:54.089Z,11.58
2023-10-25T01:30:24.609Z,11.62
2023-10-25T01:32:55.873Z,11.70
2023-10-25T01:35:28.280Z,11.52
2023-10-25T01:37:58.833Z,11.60
2023-10-25T01:40:29.501Z,11.54
2023-10-25T01:43:01.282Z,11.55
2023-10-25T01:45:32.457Z,11.57
2023-10-25T01:48:03.429Z,11.57
2023-10-25T01:50:35.847Z,11.54
2023-10-25T01:53:10.298Z,11.49
2023-10-25T01:55:43.718Z,11.47
2023-10-25T01:58:14.245Z,11.50
2023-10-25T02:00:46.420Z,11.54
2023-10-25T02:03:18.698Z,11.48
2023-10-25T02:05:51.085Z,11.44
2023-10-25T02:08:25.638Z,11.42
2023-10-25T02:10:56.778Z,11.50
2023-10-25T02:13:27.693Z,11.37
2023-10-25T02:15:58.906Z,11.33
2023-10-25T02:18:30.266Z,11.30
2023-10-25T02:21:02.386Z,11.27
2023-10-25T02:23:33.253Z,11.32
2023-10-25T02:26:03.944Z,11.35
2023-10-25T02:28:34.545Z,11.22
2023-10-25T02:31:08.214Z,11.26
2023-10-25T02:33:42.206Z,11.26
2023-10-25T02:36:12.818Z,11.31
2023-10-25T02:38:44.299Z,11.20
2023-10-25T02:41:14.872Z,11.16
2023-10-25T02:43:45.755Z,11.18
2023-10-25T02:46:16.336Z,11.10
2023-10-25T02:48:46.867Z,11.10
2023-10-25T02:51:17.913Z,11.12
2023-10-25T02:53:48.513Z,11.08
2023-10-25T02:56:19.011Z,11.10
2023-10-25T02:58:49.782Z,11.17
2023-10-25T03:01:24.865Z,11.08
2023-10-25T03:03:57.093Z,11.08
2023-10-25T03:06:27.639Z,11.10
2023-10-25T03:08:58.890Z,11.18
2023-10-25T03:11:30.818Z,11.10
2023-10-25T03:14:02.603Z,11.18
2023-10-25T03:16:33.304Z,11.25
2023-10-25T03:19:03.952Z,11.11
2023-10-25T03:21:34.547Z,11.14
2023-10-25T03:24:08.969Z,11.00
2023-10-25T03:26:39.606Z,11.10
2023-10-25T03:29:10.190Z,11.09
2023-10-25T03:31:41.076Z,11.20
2023-10-25T03:34:12.031Z,11.18
2023-10-25T03:36:42.946Z,11.23
2023-10-25T03:39:19.681Z,11.12
2023-10-25T03:41:50.470Z,11.18
2023-10-25T03:44:21.002Z,11.11
2023-10-25T03:46:51.636Z,11.04
2023-10-25T03:49:22.376Z,11.10
2023-10-25T03:51:52.886Z,11.03
2023-10-25T03:54:23.677Z,10.91
2023-10-25T03:56:54.276Z,10.91
2023-10-25T03:59:24.846Z,10.84
2023-10-25T04:01:55.474Z,10.80
2023-10-25T04:04:26.302Z,10.76
2023-10-25T04:06:57.613Z,10.68
2023-10-25T04:09:28.260Z,10.69
2023-10-25T04:11:58.853Z,10.58
2023-10-25T04:14:30.098Z,10.58
2023-10-25T04:17:01.020Z,10.62
2023-10-25T04:19:31.649Z,10.62
2023-10-25T04:22:02.943Z,10.58
2023-10-25T04:24:33.917Z,10.56
2023-10-25T04:27:04.503Z,10.54
2023-10-25T04:29:35.207Z,10.41
2023-10-25T04:32:08.223Z,10.33
2023-10-25T04:34:39.033Z,10.32
2023-10-25T04:37:09.940Z,10.26
2023-10-25T04:39:42.119Z,10.18
2023-10-25T04:42:13.011Z,10.10
2023-10-25T04:44:43.718Z,10.06
2023-10-25T04:47:15.027Z,10.09
2023-10-25T04:49:46.033Z,10.04
2023-10-25T04:52:20.260Z,10.06
2023-10-25T04:54:52.710Z,9.91
2023-10-25T04:57:23.422Z,9.90
2023-10-25T04:59:55.685Z,9.88
2023-10-25T05:02:26.339Z,9.87
2023-10-25T05:04:59.196Z,9.84
2023-10-25T05:07:32.768Z,9.83
2023-10-25T05:10:07.258Z,9.78
2023-10-25T05:12:46.099Z,9.78
2023-10-25T05:15:21.327Z,9.72
2023-10-25T05:17:52.592Z,9.78
2023-10-25T05:20:23.690Z,9.76
2023-10-25T05:22:56.476Z,9.72
2023-10-25T05:25:29.433Z,9.66
2023-10-25T05:28:02.310Z,9.64
2023-10-25T05:30:33.460Z,9.66
2023-10-25T05:33:07.280Z,9.63
2023-10-25T05:35:39.489Z,9.59
2023-10-25T05:38:10.211Z,9.60
2023-10-25T05:40:41.873Z,9.57
2023-10-25T05:43:15.740Z,9.54
2023-10-25T05:45:47.130Z,9.56
2023-10-25T05:48:18.146Z,9.55
2023-10-25T05:50:52.007Z,9.48
2023-10-25T05:53:22.706Z,9.48
2023-10-25T05:55:53.838Z,9.54
2023-10-25T05:58:25.282Z,9.58
2023-10-25T06:00:57.452Z,9.56
2023-10-25T06:03:32.340Z,9.64
2023-10-25T06:06:02.750Z,9.65
2023-10-25T06:08:33.851Z,9.64
2023-10-25T06:11:07.231Z,9.67
2023-10-25T06:13:38.523Z,9.74
2023-10-25T06:16:09.144Z,9.70
2023-10-25T06:18:39.892Z,9.74
2023-10-25T06:21:11.060Z,9.79
2023-10-25T06:23:41.793Z,9.76
2023-10-25T06:26:12.509Z,9.80
2023-10-25T06:28:43.420Z,9.96
2023-10-25T06:31:16.882Z,9.96
2023-10-25T06:33:52.716Z,10.06
2023-10-25T06:36:22.650Z,10.06
2023-10-25T06:38:53.935Z,10.09
2023-10-25T06:41:25.228Z,10.08
2023-10-25T06:43:56.310Z,10.18
2023-10-25T06:46:27.714Z,10.20
2023-10-25T06:48:59.482Z,10.30
2023-10-25T06:51:31.571Z,10.22
2023-10-25T06:54:03.835Z,10.28
2023-10-25T06:56:37.553Z,10.36
2023-10-25T06:59:09.287Z,10.43
2023-10-25T07:01:45.307Z,10.47
2023-10-25T07:04:17.002Z,10.54
2023-10-25T07:06:51.224Z,10.59
2023-10-25T07:09:22.249Z,10.74
2023-10-25T07:11:52.823Z,10.80
2023-10-25T07:14:24.926Z,10.76
2023-10-25T07:16:55.631Z,10.75
2023-10-25T07:19:27.370Z,10.67
2023-10-25T07:21:58.364Z,10.74
2023-10-25T07:24:28.860Z,10.66
2023-10-25T07:27:00.832Z,10.67
2023-10-25T07:29:32.187Z,10.69
2023-10-25T07:32:02.775Z,10.66
2023-10-25T07:34:33.266Z,10.76
2023-10-25T07:37:03.853Z,10.72
2023-10-25T07:39:36.064Z,10.86
2023-10-25T07:42:08.699Z,11.07
2023-10-25T07:44:40.745Z,11.14
2023-10-25T07:47:11.542Z,11.28
2023-10-25T07:49:43.989Z,11.61
2023-10-25T07:52:18.641Z,11.98
2023-10-25T07:54:51.055Z,12.18
2023-10-25T07:57:58.293Z,12.41
2023-10-25T07:59:55.668Z,12.01
2023-10-25T08:02:31.810Z,12.27
2023-10-25T08:05:03.270Z,12.31
2023-10-25T08:07:35.654Z,12.46
2023-10-25T08:10:09.410Z,12.60
2023-10-25T08:12:41.792Z,12.87
2023-10-25T08:15:15.458Z,12.90
2023-10-25T08:17:46.273Z,12.98
2023-10-25T08:20:20.287Z,13.14
2023-10-25T08:22:52.745Z,13.26
2023-10-25T08:25:25.430Z,13.18
2023-10-25T08:27:58.634Z,13.25
2023-10-25T08:30:30.430Z,13.27
2023-10-25T08:33:01.577Z,13.17
2023-10-25T08:35:34.361Z,12.78
2023-10-25T08:38:07.142Z,13.06
2023-10-25T08:40:39.588Z,13.19
2023-10-25T08:43:13.123Z,12.66
2023-10-25T08:45:46.402Z,13.13
2023-10-25T08:48:17.013Z,13.24
2023-10-25T08:50:48.664Z,13.41
2023-10-25T08:53:26.390Z,13.62
2023-10-25T08:56:00.475Z,13.50
2023-10-25T08:58:32.106Z,13.46
2023-10-25T09:01:04.596Z,13.68
2023-10-25T09:03:42.452Z,13.50
2023-10-25T09:06:17.047Z,13.48
2023-10-25T09:08:54.816Z,13.11
2023-10-25T09:11:31.399Z,13.44
2023-10-25T09:14:03.733Z,13.14
2023-10-25T09:16:36.919Z,13.42
2023-10-25T09:19:09.210Z,13.31
2023-10-25T09:21:42.415Z,13.12
2023-10-25T09:24:13.075Z,13.30
2023-10-25T09:26:45.202Z,13.20
2023-10-25T09:29:18.438Z,13.11
2023-10-25T09:31:53.720Z,13.02
2023-10-25T09:34:28.344Z,13.11
2023-10-25T09:36:59.402Z,13.10
2023-10-25T09:39:35.908Z,13.09
2023-10-25T09:42:11.183Z,13.34
2023-10-25T09:44:51.393Z,13.26
2023-10-25T09:47:27.119Z,13.70
2023-10-25T09:50:02.913Z,13.90
2023-10-25T09:52:36.982Z,13.76
2023-10-25T09:55:17.869Z,13.75
2023-10-25T09:57:50.277Z,13.39
2023-10-25T10:00:23.117Z,13.16
2023-10-25T10:02:59.551Z,13.28
2023-10-25T10:05:35.855Z,13.43
2023-10-25T10:08:18.499Z,13.34
2023-10-25T10:11:00.275Z,13.39
2023-10-25T10:13:30.800Z,13.56
2023-10-25T10:16:06.706Z,13.34
2023-10-25T10:18:40.214Z,13.40
2023-10-25T10:21:11.991Z,13.54
2023-10-25T10:23:45.994Z,13.48
2023-10-25T10:26:36.137Z,13.52
2023-10-25T10:29:09.969Z,14.11
2023-10-25T10:31:55.735Z,14.48
2023-10-25T10:34:42.436Z,14.57
2023-10-25T10:37:18.227Z,14.76
2023-10-25T10:40:10.686Z,14.89
2023-10-25T10:42:44.920Z,15.13
2023-10-25T10:45:19.448Z,15.16
2023-10-25T10:47:55.769Z,15.00
2023-10-25T10:50:27.305Z,15.02
2023-10-25T10:52:59.442Z,14.90
2023-10-25T10:55:29.986Z,14.87
2023-10-25T10:58:08.063Z,14.58
2023-10-25T11:00:34.455Z,14.44
2023-10-25T11:03:10.302Z,14.68
2023-10-25T11:05:40.230Z,14.89
2023-10-25T11:08:14.237Z,14.66
2023-10-25T11:10:45.809Z,14.57
2023-10-25T11:13:18.221Z,14.62
2023-10-25T11:15:49.754Z,14.58
2023-10-25T11:18:20.562Z,14.75
2023-10-25T11:20:51.260Z,14.60
2023-10-25T11:23:21.883Z,14.48
2023-10-25T11:25:53.762Z,14.44
2023-10-25T11:28:25.724Z,14.31
2023-10-25T11:31:04.738Z,14.17
2023-10-25T11:33:41.108Z,14.34
2023-10-25T11:36:13.338Z,14.41
2023-10-25T11:38:48.504Z,14.66
2023-10-25T11:41:19.639Z,15.00
2023-10-25T11:43:50.794Z,14.94
2023-10-25T11:46:23.788Z,15.26
2023-10-25T11:48:57.758Z,14.96
2023-10-25T11:51:29.108Z,15.20
2023-10-25T11:54:13.932Z,15.60
2023-10-25T11:56:32.863Z,16.26
2023-10-25T11:59:03.480Z,16.53
2023-10-25T12:01:34.229Z,16.29
2023-10-25T12:04:05.050Z,15.12
2023-10-25T12:06:37.078Z,14.70
2023-10-25T12:09:09.298Z,14.80
2023-10-25T12:11:40.671Z,14.62
2023-10-25T12:14:21.037Z,14.86
2023-10-25T12:16:46.511Z,14.34
2023-10-25T12:19:17.667Z,14.25
2023-10-25T12:21:48.414Z,14.08
2023-10-25T12:24:19.206Z,14.22
2023-10-25T12:26:49.758Z,14.34
2023-10-25T12:29:21.005Z,14.16
2023-10-25T12:31:51.637Z,14.14
2023-10-25T12:34:22.563Z,14.16
2023-10-25T12:36:54.307Z,14.19
2023-10-25T12:39:25.355Z,13.92
2023-10-25T12:41:55.970Z,13.80
2023-10-25T12:44:27.077Z,14.12
2023-10-25T12:46:57.806Z,14.20
2023-10-25T12:49:28.610Z,14.34
2023-10-25T12:51:59.213Z,14.36
2023-10-25T12:54:29.723Z,14.26
2023-10-25T12:57:00.562Z,14.49
2023-10-25T12:59:31.195Z,14.55
2023-10-25T13:02:01.802Z,14.30
2023-10-25T13:04:34.151Z,14.00
2023-10-25T13:07:07.026Z,13.98
2023-10-25T13:09:37.814Z,14.00
2023-10-25T13:12:10.542Z,13.76
2023-10-25T13:14:41.271Z,13.70
2023-10-25T13:17:20.105Z,13.62
2023-10-25T13:19:45.706Z,13.62
2023-10-25T13:22:17.784Z,13.72
2023-10-25T13:24:49.149Z,13.82
2023-10-25T13:27:19.775Z,13.82
2023-10-25T13:29:51.176Z,13.85
2023-10-25T13:32:22.661Z,13.66
2023-10-25T13:34:53.664Z,13.64
2023-10-25T13:37:24.319Z,13.69
2023-10-25T13:39:54.971Z,13.67
2023-10-25T13:42:25.650Z,13.68
2023-10-25T13:44:56.243Z,13.56
2023-10-25T13:47:28.160Z,13.76
2023-10-25T13:49:59.052Z,13.62
2023-10-25T13:52:29.993Z,13.55
2023-10-25T13:55:00.550Z,13.72
2023-10-25T13:57:31.233Z,13.91
2023-10-25T14:00:02.061Z,14.05
2023-10-25T14:02:34.349Z,14.06
2023-10-25T14:05:05.057Z,13.89
2023-10-25T14:07:35.842Z,13.98
2023-10-25T14:10:10.008Z,13.71
2023-10-25T14:12:40.618Z,13.63
2023-10-25T14:15:11.640Z,13.58
2023-10-25T14:17:42.840Z,13.57
2023-10-25T14:20:14.206Z,13.53
2023-10-25T14:22:47.069Z,13.50
2023-10-25T14:25:17.847Z,13.38
2023-10-25T14:27:48.865Z,13.36
2023-10-25T14:30:21.856Z,13.24
2023-10-25T14:32:53.954Z,13.36
2023-10-25T14:35:24.639Z,13.18
2023-10-25T14:37:58.059Z,13.16
2023-10-25T14:40:31.274Z,13.14
2023-10-25T14:43:01.956Z,12.98
2023-10-25T14:45:36.826Z,13.06
2023-10-25T14:48:12.294Z,12.84
2023-10-25T14:50:43.276Z,12.89
2023-10-25T14:53:14.217Z,12.79
2023-10-25T14:55:46.998Z,12.91
2023-10-25T14:58:18.220Z,12.81
2023-10-25T15:00:49.294Z,12.56
2023-10-25T15:03:22.086Z,12.66
2023-10-25T15:06:00.471Z,12.68
2023-10-25T15:08:34.646Z,12.62
2023-10-25T15:11:05.386Z,12.60
2023-10-25T15:13:36.014Z,12.48
2023-10-25T15:16:07.412Z,12.49
2023-10-25T15:18:40.048Z,12.39
2023-10-25T15:21:15.667Z,12.40
2023-10-25T15:23:47.639Z,12.14
2023-10-25T15:26:19.804Z,12.18
2023-10-25T15:28:51.049Z,12.20
2023-10-25T15:31:25.451Z,12.14
2023-10-25T15:33:56.162Z,12.17
2023-10-25T15:36:28.191Z,12.18
2023-10-25T15:39:09.005Z,12.22
2023-10-25T15:41:31.304Z,12.02
2023-10-25T15:44:03.084Z,11.86
2023-10-25T15:46:35.609Z,11.68
2023-10-25T15:49:06.872Z,11.70
2023-10-25T15:51:37.605Z,11.78
2023-10-25T15:54:11.088Z,11.76
2023-10-25T15:56:43.176Z,11.74
2023-10-25T15:59:13.756Z,11.80
2023-10-25T16:01:52.188Z,11.72
2023-10-25T16:04:17.032Z,11.66
2023-10-25T16:06:48.193Z,11.54
2023-10-25T16:09:18.679Z,11.70
2023-10-25T16:11:50.284Z,11.60
2023-10-25T16:14:26.240Z,11.61
2023-10-25T16:16:57.559Z,11.54
2023-10-25T16:19:28.461Z,11.60
2023-10-25T16:22:01.411Z,11.60
2023-10-25T16:24:32.249Z,11.50
2023-10-25T16:27:04.256Z,11.42
2023-10-25T16:29:36.590Z,11.54
2023-10-25T16:32:09.100Z,11.52
2023-10-25T16:34:43.073Z,11.54
2023-10-25T16:37:23.908Z,11.47
2023-10-25T16:39:54.059Z,11.47
2023-10-25T16:42:26.573Z,11.54
2023-10-25T16:44:58.423Z,11.32
2023-10-25T16:47:29.499Z,11.32
2023-10-25T16:50:00.158Z,11.40
2023-10-25T16:52:32.896Z,11.30
2023-10-25T16:55:04.741Z,11.44
2023-10-25T16:57:41.951Z,11.36
2023-10-25T17:00:13.262Z,11.36
2023-10-25T17:02:45.173Z,11.36
2023-10-25T17:05:18.401Z,11.42
2023-10-25T17:07:50.091Z,11.45
2023-10-25T17:10:23.655Z,11.36
2023-10-25T17:12:56.441Z,11.28
2023-10-25T17:15:31.600Z,11.29
2023-10-25T17:18:05.292Z,11.26
2023-10-25T17:20:36.199Z,11.27
2023-10-25T17:23:07.563Z,11.21
2023-10-25T17:25:41.520Z,11.27
2023-10-25T17:28:13.784Z,11.22
2023-10-25T17:30:44.749Z,11.06
2023-10-25T17:33:17.335Z,11.10
2023-10-25T17:35:53.809Z,11.15
2023-10-25T17:38:27.408Z,11.02
2023-10-25T17:40:58.632Z,10.95
2023-10-25T17:43:32.294Z,10.94
2023-10-25T17:46:12.216Z,10.86
2023-10-25T17:48:47.761Z,10.82
2023-10-25T17:51:19.361Z,11.06
2023-10-25T17:53:50.310Z,11.01
2023-10-25T17:56:26.586Z,10.94
2023-10-25T17:59:00.679Z,10.98
2023-10-25T18:01:36.720Z,10.91
2023-10-25T18:04:07.742Z,11.10
2023-10-25T18:06:49.304Z,11.02
2023-10-25T18:09:11.389Z,11.06
2023-10-25T18:11:46.212Z,11.03
2023-10-25T18:16:50.073Z,10.92
2023-10-25T18:19:23.968Z,10.98
2023-10-25T18:21:57.715Z,10.99
2023-10-25T18:24:29.955Z,10.90
2023-10-25T18:27:00.880Z,10.89
2023-10-25T18:29:31.812Z,10.93
2023-10-25T18:32:21.425Z,10.91
2023-10-25T18:34:39.098Z,10.82
2023-10-25T18:37:09.990Z,10.95
2023-10-25T18:39:43.592Z,10.86
2023-10-25T18:42:16.143Z,10.76
2023-10-25T18:44:50.086Z,10.87
2023-10-25T18:47:23.346Z,10.88
2023-10-25T18:49:53.998Z,10.85
2023-10-25T18:52:28.054Z,10.86
2023-10-25T18:54:59.091Z,10.92
2023-10-25T18:57:32.493Z,10.82
2023-10-25T19:00:03.459Z,10.84
2023-10-25T19:02:34.930Z,10.85
2023-10-25T19:06:26.000Z,10.94
2023-10-25T19:07:38.867Z,10.80
2023-10-25T19:10:29.067Z,10.75
2023-10-25T19:12:43.878Z,10.76
2023-10-25T19:15:15.159Z,10.90
2023-10-25T19:17:47.794Z,10.92
2023-10-25T19:20:19.969Z,10.84
2023-10-25T19:22:51.441Z,10.68
2023-10-25T19:25:23.365Z,10.78
2023-10-25T19:27:54.465Z,10.72
2023-10-25T19:30:25.378Z,10.72
2023-10-25T19:32:55.986Z,10.85
2023-10-25T19:35:27.279Z,10.78
2023-10-25T19:37:58.209Z,10.80
2023-10-25T19:40:29.754Z,10.75
2023-10-25T19:43:01.287Z,10.64
2023-10-25T19:45:33.570Z,10.73
2023-10-25T19:48:06.277Z,10.62
2023-10-25T19:50:37.068Z,10.62
2023-10-25T19:53:07.784Z,10.53
2023-10-25T19:55:39.841Z,10.72
2023-10-25T19:58:11.282Z,10.68
2023-10-25T20:00:41.842Z,10.80
2023-10-25T20:03:13.109Z,10.78
2023-10-25T20:05:45.378Z,10.75
2023-10-25T20:08:17.631Z,10.82
2023-10-25T20:10:48.304Z,10.78
2023-10-25T20:13:21.596Z,10.73
2023-10-25T20:15:53.712Z,10.66
2023-10-25T20:18:26.031Z,10.74
2023-10-25T20:20:56.837Z,10.68
2023-10-25T20:23:27.657Z,10.70
2023-10-25T20:25:59.940Z,10.59
2023-10-25T20:28:31.108Z,10.56
2023-10-25T20:31:05.689Z,10.61
2023-10-25T20:33:37.982Z,10.63
2023-10-25T20:36:09.316Z,10.60
2023-10-25T20:38:40.377Z,10.55
2023-10-25T20:41:12.779Z,10.61
2023-10-25T20:43:45.324Z,10.63
2023-10-25T20:46:19.727Z,10.64
2023-10-25T20:48:49.518Z,10.64
2023-10-25T20:51:21.697Z,10.62
2023-10-25T20:53:53.203Z,10.70
2023-10-25T20:56:23.986Z,10.68
2023-10-25T20:58:55.900Z,10.74
2023-10-25T21:01:26.553Z,10.79
2023-10-25T21:03:57.434Z,10.76
2023-10-25T21:06:28.244Z,10.76
2023-10-25T21:08:58.914Z,10.78
2023-10-25T21:11:30.284Z,10.78
2023-10-25T21:14:00.948Z,10.84
2023-10-25T21:16:33.529Z,10.67
2023-10-25T21:19:05.676Z,10.68
2023-10-25T21:21:38.206Z,10.78
2023-10-25T21:24:09.628Z,10.81
2023-10-25T21:26:41.854Z,10.80
2023-10-25T21:29:12.486Z,10.76
2023-10-25T21:31:43.687Z,10.70
2023-10-25T21:34:16.972Z,10.68
2023-10-25T21:36:47.583Z,10.66
2023-10-25T21:39:18.650Z,10.80
2023-10-25T21:41:50.787Z,10.73
2023-10-25T21:44:22.013Z,10.64
2023-10-25T21:46:53.916Z,10.72
2023-10-25T21:49:24.705Z,10.70
2023-10-25T21:51:55.462Z,10.48
2023-10-25T21:54:26.190Z,10.54
2023-10-25T21:56:56.988Z,10.47
2023-10-25T21:59:49.967Z,10.48
2023-10-25T22:02:02.861Z,10.32
2023-10-25T22:04:33.783Z,10.26
2023-10-25T22:07:04.821Z,10.27
2023-10-25T22:09:35.884Z,10.28
2023-10-25T22:12:10.306Z,10.24
2023-10-25T22:14:42.766Z,10.20
2023-10-25T22:17:13.685Z,10.22
2023-10-25T22:19:44.498Z,10.20
2023-10-25T22:22:15.374Z,10.22
2023-10-25T22:24:46.106Z,10.15
2023-10-25T22:27:16.944Z,10.20
2023-10-25T22:29:47.564Z,10.11
2023-10-25T22:32:18.775Z,10.08
2023-10-25T22:34:49.612Z,10.19
2023-10-25T22:37:22.132Z,10.10
2023-10-25T22:39:55.263Z,10.11
2023-10-25T22:42:26.478Z,10.02
2023-10-25T22:44:57.396Z,9.99
2023-10-25T22:47:29.988Z,10.16
2023-10-25T22:50:02.368Z,10.04
2023-10-25T22:52:33.113Z,10.04
2023-10-25T22:55:04.138Z,10.00
2023-10-25T22:57:34.684Z,9.96
2023-10-25T23:00:05.923Z,9.90
2023-10-25T23:02:36.865Z,9.82
2023-10-25T23:05:08.376Z,9.84
2023-10-25T23:07:40.262Z,9.84
2023-10-25T23:10:12.651Z,9.75
2023-10-25T23:12:43.327Z,9.78
2023-10-25T23:15:13.986Z,9.96
2023-10-25T23:17:45.101Z,9.95
2023-10-25T23:20:17.799Z,9.83
2023-10-25T23:22:48.320Z,9.86
2023-10-25T23:25:18.952Z,9.88
2023-10-25T23:27:49.703Z,9.84
2023-10-25T23:30:23.463Z,9.82
2023-10-25T23:32:54.796Z,9.93
2023-10-25T23:35:27.344Z,9.82
2023-10-25T23:37:57.843Z,9.86
2023-10-25T23:40:28.358Z,10.02
2023-10-25T23:42:58.867Z,9.92
2023-10-25T23:45:30.389Z,9.90
2023-10-25T23:48:01.005Z,9.98
2023-10-25T23:50:32.339Z,9.82
2023-10-25T23:53:04.176Z,9.90
2023-10-25T23:55:34.631Z,9.82
2023-10-25T23:58:07.349Z,9.87
